createdAt,value
2018-06-09T00:01:33.899Z,81.88
2018-06-09T00:04:02.201Z,83.19
2018-06-09T00:06:30.360Z,83.18
2018-06-09T00:08:58.725Z,83.25
2018-06-09T00:11:27.066Z,83.48
2018-06-09T00:13:55.269Z,83.57
2018-06-09T00:16:23.494Z,83.63
2018-06-09T00:18:52.742Z,84.18
2018-06-09T00:21:21.099Z,83.60
2018-06-09T00:23:49.317Z,83.74
2018-06-09T00:26:17.745Z,84.56
2018-06-09T00:28:45.925Z,84.90
2018-06-09T00:31:14.229Z,84.56
2018-06-09T00:33:42.600Z,84.88
2018-06-09T00:36:11.296Z,85.10
2018-06-09T00:38:39.651Z,85.17
2018-06-09T00:41:07.967Z,84.47
2018-06-09T00:43:36.166Z,84.55
2018-06-09T00:46:04.377Z,85.18
2018-06-09T00:48:32.737Z,84.91
2018-06-09T00:51:00.932Z,84.63
2018-06-09T00:53:29.096Z,84.72
2018-06-09T00:56:08.557Z,84.78
2018-06-09T00:58:36.695Z,85.13
2018-06-09T01:01:04.887Z,84.34
2018-06-09T01:03:33.055Z,84.29
2018-06-09T01:06:01.193Z,85.36
2018-06-09T01:08:29.380Z,84.67
2018-06-09T01:10:57.607Z,84.03
2018-06-09T01:13:25.730Z,84.72
2018-06-09T01:15:53.884Z,84.62
2018-06-09T01:18:22.036Z,85.22
2018-06-09T01:20:50.163Z,84.75
2018-06-09T01:23:18.410Z,84.04
2018-06-09T01:25:46.581Z,84.71
2018-06-09T01:28:14.743Z,84.50
2018-06-09T01:30:42.914Z,84.78
2018-06-09T01:33:11.077Z,84.87
2018-06-09T01:35:39.224Z,84.54
2018-06-09T01:38:07.370Z,85.21
2018-06-09T01:40:35.502Z,85.92
2018-06-09T01:43:03.663Z,86.55
2018-06-09T01:45:31.807Z,86.41
2018-06-09T01:48:00.008Z,86.24
2018-06-09T01:50:28.142Z,85.91
2018-06-09T01:52:56.307Z,85.84
2018-06-09T01:55:24.511Z,86.48
2018-06-09T01:57:52.650Z,87.52
2018-06-09T02:00:20.827Z,87.08
2018-06-09T02:02:48.984Z,87.31
2018-06-09T02:05:17.139Z,87.33
2018-06-09T02:07:45.292Z,86.59
2018-06-09T02:10:13.470Z,87.14
2018-06-09T02:12:41.605Z,86.68
2018-06-09T02:15:09.772Z,86.88
2018-06-09T02:17:37.950Z,87.82
2018-06-09T02:20:06.143Z,87.80
2018-06-09T02:22:34.292Z,88.12
2018-06-09T02:25:02.499Z,87.47
2018-06-09T02:27:30.640Z,87.76
2018-06-09T02:29:58.818Z,88.18
2018-06-09T02:32:27.003Z,88.40
2018-06-09T02:34:55.163Z,87.99
2018-06-09T02:37:23.310Z,88.48
2018-06-09T02:39:51.459Z,88.78
2018-06-09T02:42:19.623Z,89.62
2018-06-09T02:44:47.796Z,89.21
2018-06-09T02:47:15.982Z,89.39
2018-06-09T02:49:44.134Z,89.76
2018-06-09T02:52:12.309Z,90.54
2018-06-09T02:54:45.470Z,89.52
2018-06-09T02:57:13.626Z,90.49
2018-06-09T02:59:41.816Z,90.45
2018-06-09T03:02:09.968Z,91.06
2018-06-09T03:04:38.104Z,90.35
2018-06-09T03:07:06.323Z,90.05
2018-06-09T03:09:34.463Z,90.09
2018-06-09T03:12:02.718Z,91.08
2018-06-09T03:14:30.872Z,90.31
2018-06-09T03:16:59.060Z,90.07
2018-06-09T03:19:27.204Z,90.75
2018-06-09T03:21:55.352Z,90.80
2018-06-09T03:24:23.526Z,89.61
2018-06-09T03:26:51.772Z,90.42
2018-06-09T03:29:19.906Z,89.56
2018-06-09T03:31:48.063Z,90.32
2018-06-09T03:34:16.214Z,90.02
2018-06-09T03:36:44.373Z,90.43
2018-06-09T03:39:12.514Z,90.38
2018-06-09T03:41:40.668Z,89.78
2018-06-09T03:44:08.851Z,89.76
2018-06-09T03:46:37.011Z,89.85
2018-06-09T03:49:05.248Z,89.78
2018-06-09T03:51:33.407Z,90.48
2018-06-09T03:54:01.568Z,90.67
2018-06-09T03:56:29.723Z,90.35
2018-06-09T03:58:57.878Z,91.39
2018-06-09T04:01:26.053Z,90.86
2018-06-09T04:03:54.321Z,91.61
2018-06-09T04:06:22.491Z,90.63
2018-06-09T04:08:50.688Z,90.52
2018-06-09T04:11:18.949Z,90.62
2018-06-09T04:13:47.070Z,90.33
2018-06-09T04:16:15.280Z,90.68
2018-06-09T04:18:43.424Z,91.25
2018-06-09T04:21:11.833Z,90.31
2018-06-09T04:23:39.956Z,90.68
2018-06-09T04:26:08.180Z,90.43
2018-06-09T04:28:36.319Z,89.89
2018-06-09T04:31:04.492Z,89.97
2018-06-09T04:33:32.658Z,89.43
2018-06-09T04:36:00.776Z,89.67
2018-06-09T04:38:28.932Z,88.54
2018-06-09T04:40:57.080Z,88.50
2018-06-09T04:43:25.303Z,88.11
2018-06-09T04:45:53.479Z,87.62
2018-06-09T04:48:21.647Z,87.73
2018-06-09T04:50:49.821Z,87.66
2018-06-09T04:53:17.959Z,87.39
2018-06-09T04:55:46.111Z,86.62
2018-06-09T04:58:14.341Z,85.90
2018-06-09T05:00:42.486Z,85.48
2018-06-09T05:03:10.639Z,84.98
2018-06-09T05:05:38.811Z,84.82
2018-06-09T05:08:06.965Z,83.98
2018-06-09T05:10:35.123Z,82.85
2018-06-09T05:13:03.302Z,81.11
2018-06-09T05:15:31.425Z,80.29
2018-06-09T05:17:59.647Z,79.66
2018-06-09T05:20:27.796Z,79.92
2018-06-09T05:22:55.955Z,76.45
2018-06-09T05:25:24.115Z,76.58
2018-06-09T05:27:52.266Z,75.00
2018-06-09T05:30:20.399Z,74.54
2018-06-09T05:32:48.626Z,73.42
2018-06-09T05:35:16.808Z,75.14
2018-06-09T05:37:44.963Z,75.31
2018-06-09T05:40:13.111Z,76.64
2018-06-09T05:42:41.258Z,76.17
2018-06-09T05:45:09.403Z,77.21
2018-06-09T05:47:37.587Z,74.47
2018-06-09T05:50:05.735Z,76.39
2018-06-09T05:52:34.185Z,77.45
2018-06-09T05:55:02.323Z,77.23
2018-06-09T05:57:30.460Z,77.62
2018-06-09T05:59:58.731Z,79.13
2018-06-09T06:02:26.907Z,79.38
2018-06-09T06:04:55.033Z,78.53
2018-06-09T06:07:23.179Z,75.72
2018-06-09T06:09:51.375Z,76.35
2018-06-09T06:12:19.594Z,77.21
2018-06-09T06:14:47.724Z,77.58
2018-06-09T06:17:15.874Z,75.00
2018-06-09T06:19:44.032Z,74.45
2018-06-09T06:22:12.187Z,75.92
2018-06-09T06:24:40.339Z,76.54
2018-06-09T06:27:08.483Z,76.57
2018-06-09T06:29:36.643Z,76.72
2018-06-09T06:32:04.802Z,75.82
2018-06-09T06:34:32.938Z,75.42
2018-06-09T06:37:01.105Z,75.28
2018-06-09T06:39:29.270Z,73.31
2018-06-09T06:41:57.436Z,73.72
2018-06-09T06:44:25.612Z,74.84
2018-06-09T06:46:53.799Z,74.96
2018-06-09T06:49:21.976Z,74.18
2018-06-09T06:51:50.143Z,72.00
2018-06-09T06:54:18.278Z,72.22
2018-06-09T06:56:46.419Z,71.51
2018-06-09T06:59:14.654Z,71.89
2018-06-09T07:01:42.820Z,71.47
2018-06-09T07:04:10.967Z,71.79
2018-06-09T07:06:39.123Z,69.78
2018-06-09T07:09:08.287Z,69.46
2018-06-09T07:11:36.692Z,68.73
2018-06-09T07:14:04.845Z,69.32
2018-06-09T07:16:33.005Z,68.68
2018-06-09T07:19:01.407Z,68.15
2018-06-09T07:21:29.551Z,69.23
2018-06-09T07:23:57.814Z,68.61
2018-06-09T07:26:26.069Z,68.84
2018-06-09T07:28:54.195Z,67.52
2018-06-09T07:31:22.349Z,66.97
2018-06-09T07:33:50.551Z,65.75
2018-06-09T07:36:18.683Z,65.70
2018-06-09T07:38:46.830Z,65.15
2018-06-09T07:41:15.017Z,65.74
2018-06-09T07:43:43.175Z,64.18
2018-06-09T07:46:11.359Z,65.39
2018-06-09T07:48:39.554Z,65.32
2018-06-09T07:51:07.706Z,65.82
2018-06-09T07:53:35.895Z,66.98
2018-06-09T07:56:04.123Z,66.46
2018-06-09T07:58:32.376Z,64.58
2018-06-09T08:01:01.140Z,65.09
2018-06-09T08:03:29.284Z,63.89
2018-06-09T08:05:58.299Z,63.00
2018-06-09T08:08:26.440Z,62.74
2018-06-09T08:10:54.597Z,61.15
2018-06-09T08:13:22.772Z,62.64
2018-06-09T08:15:50.936Z,61.06
2018-06-09T08:18:19.084Z,60.76
2018-06-09T08:20:47.384Z,60.26
2018-06-09T08:23:15.796Z,59.54
2018-06-09T08:25:44.303Z,59.84
2018-06-09T08:28:12.585Z,61.44
2018-06-09T08:30:40.723Z,59.65
2018-06-09T08:33:08.896Z,59.91
2018-06-09T08:35:37.059Z,63.30
2018-06-09T08:38:05.753Z,64.34
2018-06-09T08:40:33.946Z,63.67
2018-06-09T08:43:02.109Z,64.37
2018-06-09T08:45:30.256Z,63.82
2018-06-09T08:47:58.409Z,63.92
2018-06-09T08:50:26.581Z,63.10
2018-06-09T08:52:55.207Z,64.66
2018-06-09T08:55:23.359Z,62.75
2018-06-09T08:57:51.510Z,62.26
2018-06-09T09:00:19.638Z,62.75
2018-06-09T09:02:47.859Z,62.93
2018-06-09T09:05:16.007Z,61.20
2018-06-09T09:07:44.156Z,59.86
2018-06-09T09:10:12.357Z,60.26
2018-06-09T09:12:40.497Z,59.43
2018-06-09T09:15:08.687Z,59.33
2018-06-09T09:17:36.814Z,60.22
2018-06-09T09:20:04.964Z,59.24
2018-06-09T09:22:33.122Z,58.31
2018-06-09T09:25:01.275Z,59.59
2018-06-09T09:27:29.414Z,57.92
2018-06-09T09:29:57.571Z,58.44
2018-06-09T09:32:25.728Z,57.80
2018-06-09T09:34:53.886Z,57.98
2018-06-09T09:37:22.034Z,56.87
2018-06-09T09:39:50.197Z,57.07
2018-06-09T09:42:18.386Z,57.64
2018-06-09T09:44:46.548Z,55.69
2018-06-09T09:47:14.710Z,55.78
2018-06-09T09:49:42.924Z,56.12
2018-06-09T09:52:11.068Z,54.57
2018-06-09T09:54:40.524Z,53.83
2018-06-09T09:57:08.667Z,53.33
2018-06-09T09:59:36.848Z,53.93
2018-06-09T10:02:05.008Z,54.49
2018-06-09T10:04:33.212Z,55.16
2018-06-09T10:07:01.379Z,54.69
2018-06-09T10:09:29.592Z,53.93
2018-06-09T10:11:57.824Z,55.65
2018-06-09T10:14:25.975Z,55.04
2018-06-09T10:17:00.652Z,54.28
2018-06-09T10:19:28.814Z,53.63
2018-06-09T10:21:56.949Z,54.05
2018-06-09T10:24:25.145Z,53.65
2018-06-09T10:26:53.433Z,54.68
2018-06-09T10:29:21.602Z,53.11
2018-06-09T10:31:49.776Z,52.39
2018-06-09T10:34:17.975Z,51.86
2018-06-09T10:36:46.162Z,52.05
2018-06-09T10:39:14.364Z,51.03
2018-06-09T10:41:42.600Z,51.12
2018-06-09T10:44:10.744Z,51.86
2018-06-09T10:46:38.894Z,51.75
2018-06-09T10:49:07.077Z,51.27
2018-06-09T10:51:35.256Z,51.61
2018-06-09T10:54:03.418Z,53.09
2018-06-09T10:56:31.590Z,51.26
2018-06-09T10:58:59.735Z,50.47
2018-06-09T11:01:27.883Z,52.24
2018-06-09T11:03:56.040Z,49.41
2018-06-09T11:06:24.199Z,49.36
2018-06-09T11:08:52.354Z,49.30
2018-06-09T11:11:20.515Z,49.60
2018-06-09T11:13:48.760Z,49.66
2018-06-09T11:16:16.896Z,49.17
2018-06-09T11:18:45.092Z,49.29
2018-06-09T11:21:13.285Z,50.43
2018-06-09T11:23:41.419Z,48.51
2018-06-09T11:26:09.570Z,48.88
2018-06-09T11:28:37.744Z,49.14
2018-06-09T11:31:05.880Z,49.55
2018-06-09T11:33:34.037Z,50.68
2018-06-09T11:36:02.207Z,49.92
2018-06-09T11:38:30.441Z,47.57
2018-06-09T11:40:58.671Z,47.79
2018-06-09T11:43:26.827Z,48.72
2018-06-09T11:45:55.033Z,46.95
2018-06-09T11:48:23.233Z,46.96
2018-06-09T11:50:51.375Z,46.74
2018-06-09T11:53:19.524Z,47.57
2018-06-09T11:55:47.727Z,48.92
2018-06-09T11:58:15.884Z,48.45
2018-06-09T12:00:44.023Z,47.49
2018-06-09T12:03:12.191Z,48.10
2018-06-09T12:05:40.479Z,46.73
2018-06-09T12:08:08.575Z,46.42
2018-06-09T12:10:36.786Z,47.72
2018-06-09T12:13:04.936Z,45.88
2018-06-09T12:15:33.115Z,44.51
2018-06-09T12:18:01.263Z,45.17
2018-06-09T12:20:29.478Z,45.09
2018-06-09T12:22:57.608Z,44.31
2018-06-09T12:25:25.750Z,41.55
2018-06-09T12:27:53.872Z,41.58
2018-06-09T12:30:22.012Z,42.86
2018-06-09T12:32:50.201Z,43.18
2018-06-09T12:35:18.329Z,41.72
2018-06-09T12:37:46.480Z,41.48
2018-06-09T12:40:14.629Z,40.77
2018-06-09T12:42:42.763Z,41.73
2018-06-09T12:45:10.900Z,42.29
2018-06-09T12:47:39.071Z,39.49
2018-06-09T12:50:07.222Z,40.64
2018-06-09T12:52:35.346Z,38.92
2018-06-09T12:55:03.508Z,40.78
2018-06-09T12:57:31.668Z,40.02
2018-06-09T12:59:59.810Z,38.80
2018-06-09T13:02:27.950Z,38.71
2018-06-09T13:04:56.082Z,39.39
2018-06-09T13:07:24.216Z,36.23
2018-06-09T13:09:52.394Z,36.92
2018-06-09T13:12:20.595Z,35.24
2018-06-09T13:14:48.727Z,38.98
2018-06-09T13:17:16.868Z,39.73
2018-06-09T13:19:45.026Z,38.42
2018-06-09T13:22:13.176Z,36.53
2018-06-09T13:24:41.343Z,38.06
2018-06-09T13:27:09.481Z,38.60
2018-06-09T13:29:37.619Z,38.13
2018-06-09T13:32:05.758Z,39.87
2018-06-09T13:34:33.896Z,38.50
2018-06-09T13:37:02.039Z,38.43
2018-06-09T13:39:30.166Z,39.91
2018-06-09T13:41:58.315Z,41.53
2018-06-09T13:44:26.448Z,41.92
2018-06-09T13:46:54.709Z,42.59
2018-06-09T13:49:22.791Z,42.83
2018-06-09T13:51:50.951Z,42.53
2018-06-09T13:54:19.108Z,41.86
2018-06-09T13:56:47.219Z,39.61
2018-06-09T13:59:15.380Z,38.08
2018-06-09T14:01:43.560Z,38.30
2018-06-09T14:04:11.701Z,41.27
2018-06-09T14:06:39.828Z,41.35
2018-06-09T14:09:08.360Z,41.03
2018-06-09T14:11:36.511Z,39.80
2018-06-09T14:14:04.676Z,41.27
2018-06-09T14:16:32.840Z,42.26
2018-06-09T14:19:00.995Z,41.50
2018-06-09T14:21:29.155Z,41.50
2018-06-09T14:23:57.289Z,40.41
2018-06-09T14:26:25.429Z,40.56
2018-06-09T14:28:53.560Z,40.83
2018-06-09T14:31:21.736Z,41.88
2018-06-09T14:33:49.862Z,42.04
2018-06-09T14:36:18.027Z,42.16
2018-06-09T14:38:46.302Z,41.87
2018-06-09T14:41:14.402Z,41.68
2018-06-09T14:43:42.556Z,42.95
2018-06-09T14:46:10.703Z,42.57
2018-06-09T14:48:38.833Z,42.29
2018-06-09T14:51:06.982Z,41.92
2018-06-09T14:53:35.123Z,43.30
2018-06-09T14:56:03.278Z,43.51
2018-06-09T14:58:31.399Z,43.49
2018-06-09T15:00:59.540Z,42.66
2018-06-09T15:03:27.660Z,43.18
2018-06-09T15:05:55.816Z,43.43
2018-06-09T15:08:23.988Z,43.95
2018-06-09T15:10:52.156Z,45.19
2018-06-09T15:13:20.298Z,47.94
2018-06-09T15:15:48.439Z,48.95
2018-06-09T15:18:16.575Z,50.89
2018-06-09T15:20:44.711Z,52.58
2018-06-09T15:23:12.834Z,53.90
2018-06-09T15:25:40.989Z,56.08
2018-06-09T15:28:09.184Z,56.02
2018-06-09T15:30:37.287Z,56.57
2018-06-09T15:33:05.439Z,59.05
2018-06-09T15:35:33.637Z,58.57
2018-06-09T15:38:01.782Z,59.09
2018-06-09T15:40:29.919Z,60.73
2018-06-09T15:42:58.108Z,60.96
2018-06-09T15:45:26.247Z,64.34
2018-06-09T15:47:54.390Z,64.18
2018-06-09T15:50:22.546Z,64.41
2018-06-09T15:52:50.716Z,67.02
2018-06-09T15:55:18.863Z,75.38
2018-06-09T15:57:47.040Z,78.49
2018-06-09T16:00:15.191Z,74.70
2018-06-09T16:02:43.358Z,81.68
2018-06-09T16:08:04.695Z,80.26
2018-06-09T16:10:32.844Z,83.03
2018-06-09T16:13:01.011Z,83.42
2018-06-09T16:15:29.151Z,85.29
2018-06-09T16:17:57.467Z,86.77
2018-06-09T16:20:25.623Z,88.18
2018-06-09T16:22:53.815Z,86.55
2018-06-09T16:25:22.007Z,85.31
2018-06-09T16:27:50.148Z,87.29
2018-06-09T16:30:18.327Z,87.88
2018-06-09T16:32:46.526Z,89.49
2018-06-09T16:35:14.667Z,89.71
2018-06-09T16:37:42.891Z,91.69
2018-06-09T16:40:11.063Z,91.94
2018-06-09T16:42:39.303Z,91.54
2018-06-09T16:45:07.459Z,92.11
2018-06-09T16:47:35.657Z,91.58
2018-06-09T16:50:03.782Z,90.62
2018-06-09T16:52:31.957Z,90.27
2018-06-09T16:55:06.479Z,90.72
2018-06-09T16:57:34.649Z,87.79
2018-06-09T17:00:02.806Z,85.10
2018-06-09T17:02:31.086Z,80.45
2018-06-09T17:04:59.263Z,79.57
2018-06-09T17:07:27.411Z,80.57
2018-06-09T17:09:55.567Z,78.42
2018-06-09T17:12:23.728Z,76.04
2018-06-09T17:14:51.879Z,76.33
2018-06-09T17:17:20.214Z,78.19
2018-06-09T17:19:48.417Z,79.56
2018-06-09T17:22:16.580Z,77.28
2018-06-09T17:24:44.739Z,75.78
2018-06-09T17:27:12.905Z,79.26
2018-06-09T17:29:41.057Z,81.79
2018-06-09T17:32:09.398Z,81.97
2018-06-09T17:34:37.851Z,80.60
2018-06-09T17:37:06.034Z,81.09
2018-06-09T17:39:34.203Z,76.87
2018-06-09T17:42:02.413Z,78.57
2018-06-09T17:44:30.707Z,77.52
2018-06-09T17:46:58.839Z,79.56
2018-06-09T17:49:27.030Z,83.76
2018-06-09T17:51:55.175Z,85.18
2018-06-09T17:54:23.360Z,87.27
2018-06-09T17:56:51.523Z,89.41
2018-06-09T17:59:19.694Z,90.11
2018-06-09T18:01:48.228Z,89.37
2018-06-09T18:04:16.590Z,87.73
2018-06-09T18:06:45.164Z,84.15
2018-06-09T18:09:13.588Z,82.17
2018-06-09T18:11:41.956Z,82.42
2018-06-09T18:14:10.225Z,80.78
2018-06-09T18:16:38.525Z,81.55
2018-06-09T18:19:06.883Z,83.81
2018-06-09T18:21:35.159Z,84.15
2018-06-09T18:24:03.426Z,85.01
2018-06-09T18:26:31.652Z,85.79
2018-06-09T18:28:59.915Z,85.15
2018-06-09T18:31:28.213Z,84.45
2018-06-09T18:33:56.553Z,82.85
2018-06-09T18:36:24.766Z,77.05
2018-06-09T18:38:53.117Z,75.46
2018-06-09T18:41:24.605Z,78.24
2018-06-09T18:43:53.049Z,75.17
2018-06-09T18:46:24.033Z,72.16
2018-06-09T18:48:52.294Z,70.78
2018-06-09T18:51:20.689Z,70.25
2018-06-09T18:53:48.953Z,68.61
2018-06-09T18:56:17.245Z,70.38
2018-06-09T18:58:45.559Z,71.35
2018-06-09T19:01:13.751Z,72.15
2018-06-09T19:03:42.036Z,73.13
2018-06-09T19:06:10.720Z,73.93
2018-06-09T19:08:39.025Z,74.68
2018-06-09T19:11:07.442Z,73.50
2018-06-09T19:13:35.676Z,74.50
2018-06-09T19:16:03.960Z,74.38
2018-06-09T19:18:32.538Z,73.53
2018-06-09T19:21:01.550Z,73.61
2018-06-09T19:23:29.801Z,73.36
2018-06-09T19:25:58.081Z,72.77
2018-06-09T19:28:26.497Z,72.38
2018-06-09T19:30:54.793Z,72.50
2018-06-09T19:33:23.083Z,72.78
2018-06-09T19:35:51.293Z,71.48
2018-06-09T19:38:19.674Z,70.79
2018-06-09T19:40:47.990Z,70.84
2018-06-09T19:43:16.953Z,70.54
2018-06-09T19:46:00.498Z,72.25
2018-06-09T19:48:28.796Z,71.96
2018-06-09T19:50:57.111Z,71.28
2018-06-09T19:53:25.555Z,69.79
2018-06-09T19:55:54.048Z,71.73
2018-06-09T19:58:22.558Z,76.72
2018-06-09T20:00:51.025Z,78.20
2018-06-09T20:03:20.451Z,79.96
2018-06-09T20:05:48.652Z,82.52
2018-06-09T20:08:17.074Z,84.66
2018-06-09T20:10:45.316Z,84.02
2018-06-09T20:13:13.547Z,84.32
2018-06-09T20:15:42.020Z,82.84
2018-06-09T20:18:10.353Z,82.30
2018-06-09T20:20:38.618Z,82.70
2018-06-09T20:23:07.945Z,82.25
2018-06-09T20:25:36.506Z,81.08
2018-06-09T20:28:08.317Z,80.37
2018-06-09T20:30:38.320Z,80.79
2018-06-09T20:33:08.361Z,80.60
2018-06-09T20:35:36.608Z,80.45
2018-06-09T20:38:04.914Z,82.21
2018-06-09T20:40:35.564Z,86.27
2018-06-09T20:43:03.823Z,84.80
2018-06-09T20:45:32.079Z,84.88
2018-06-09T20:48:01.038Z,84.31
2018-06-09T20:50:30.388Z,86.87
2018-06-09T20:52:58.657Z,85.68
2018-06-09T20:55:32.756Z,85.21
2018-06-09T20:58:05.233Z,86.09
2018-06-09T21:00:54.344Z,87.00
2018-06-09T21:03:24.825Z,90.07
2018-06-09T21:05:53.401Z,89.41
2018-06-09T21:08:22.607Z,86.91
2018-06-09T21:10:51.044Z,88.06
2018-06-09T21:13:19.596Z,88.17
2018-06-09T21:15:47.884Z,89.74
2018-06-09T21:18:16.775Z,90.43
2018-06-09T21:23:39.657Z,92.28
2018-06-09T21:26:08.529Z,92.31
2018-06-09T21:28:42.214Z,92.47
2018-06-09T21:31:15.786Z,92.53
2018-06-09T21:34:00.771Z,91.11
2018-06-09T21:36:35.037Z,91.48
2018-06-09T21:39:10.431Z,91.13
2018-06-09T21:41:47.837Z,90.93
2018-06-09T21:44:21.440Z,91.48
2018-06-09T21:46:50.263Z,92.47
2018-06-09T21:49:24.764Z,93.07
2018-06-09T21:51:53.573Z,92.45
2018-06-09T21:54:22.050Z,92.85
2018-06-09T21:56:50.395Z,92.33
2018-06-09T21:59:18.706Z,92.59
2018-06-09T22:01:46.992Z,90.88
2018-06-09T22:04:15.293Z,90.31
2018-06-09T22:06:43.609Z,90.20
2018-06-09T22:09:11.884Z,91.00
2018-06-09T22:11:40.267Z,91.84
2018-06-09T22:14:10.018Z,92.19
2018-06-09T22:16:39.243Z,93.06
2018-06-09T22:19:07.590Z,94.02
2018-06-09T22:21:36.466Z,95.32
2018-06-09T22:24:05.006Z,94.92
2018-06-09T22:26:33.278Z,94.76
2018-06-09T22:29:01.645Z,94.58
2018-06-09T22:31:30.037Z,93.26
2018-06-09T22:33:58.352Z,91.36
2018-06-09T22:36:26.681Z,88.60
2018-06-09T22:38:54.984Z,89.60
2018-06-09T22:41:23.260Z,89.65
2018-06-09T22:43:51.467Z,89.64
2018-06-09T22:46:20.263Z,89.92
2018-06-09T22:48:48.595Z,88.96
2018-06-09T22:51:17.012Z,88.80
2018-06-09T22:53:45.281Z,87.41
2018-06-09T22:56:13.611Z,88.97
2018-06-09T22:58:41.854Z,88.08
2018-06-09T23:01:10.300Z,88.70
2018-06-09T23:03:38.742Z,87.90
2018-06-09T23:06:08.097Z,87.24
2018-06-09T23:08:36.457Z,87.78
2018-06-09T23:11:05.516Z,89.16
2018-06-09T23:13:33.875Z,89.02
2018-06-09T23:16:02.339Z,90.51
2018-06-09T23:18:30.586Z,90.49
2018-06-09T23:20:58.841Z,91.23
2018-06-09T23:23:27.096Z,91.52
2018-06-09T23:25:55.537Z,92.24
2018-06-09T23:28:23.815Z,93.17
2018-06-09T23:30:52.084Z,93.04
2018-06-09T23:33:20.410Z,93.91
2018-06-09T23:35:48.739Z,94.52
2018-06-09T23:38:17.023Z,94.14
2018-06-09T23:40:45.426Z,94.34
2018-06-09T23:43:13.729Z,93.03
2018-06-09T23:45:42.062Z,91.51
2018-06-09T23:48:10.472Z,89.80
2018-06-09T23:50:38.692Z,88.44
2018-06-09T23:53:06.904Z,87.70
2018-06-09T23:55:35.260Z,87.28
2018-06-09T23:58:03.533Z,90.05
